Bei Facebook empfehlenBei Twitter postenGoogle plusPinterest

Das Wetter im Erzgebirge am 28.08.2017

Wetter und Klima am 28.08.2017 Holzhau im Erzgebirge (630m ü.NN)
Letzte gemessene Temperatur und Uhrzeit der Messung23:45:00 Uhr8.50 °C
Temperatur (Maximum / Höchstwert) und Uhrzeit der Messung15:30:00 Uhr24.40 °C
Temperatur (Minimum / Tiefstwert) und Uhrzeit der Messung06:00:007.50 °C
Errechneter Absolutwert der Temperaturschwankungen zwischen Tmin und Tmax des Tages16.90 K
Errechnete Tagesmitteltemperatur14.63646 °C
Gesamt - Niederschlag des Tages (in flüssiger Form)0.00 Liter / m²
Luftdruck (Maximum / Höchstwert) und Zeitpunkt der Messung12:30:00 Uhr1017.60 hPa
Luftdruck (Minimum / Tiefstwert) und Zeitpunkt der Messung03:15:00 Uhr1016.10 hPa
Errechneter Absolutwert der Luftdruckschwankungen des Tages1.50 hPa
Höchste gemessene Windgeschwindigkeit und Uhrzeit der Messung18:00:00 Uhr25.92 km/h
Errechnete Windhäufigkeit in Relation zu den Messwerten des Tages6.25000 %
Niedrigste Windkühle (Windchill) und Zeitpunkt der Messung06:00:00 Uhr7.50 °C
Taupunkt (Maximum / Höchstwert) und Uhrzeit der Messung10:30:00 Uhr14.00 °C
Taupunkt (Minimum / Tiefstwert) und Uhrzeit der Messung06:00:006.30 °C
Anzahl der automatisch eingelesenen Messwerte 96

Detaillierte Wetter- und Klima- Messwerte für den 28.08.2017 in Holzhau im Erzgebirge (630m ü.NN)
ZeitTemperaturLuftdruckRel. LuftfeuchteWindWindrichtungWindchillTaupunktNiederschlag l/m²
23:45:008.50 °C1017.00 hPa88.00 %6.60 °C 
23:30:008.80 °C1017.30 hPa87.00 %6.80 °C 
23:15:008.90 °C1017.20 hPa87.00 %2.52 km/hSO8.90 °C6.90 °C 
23:00:009.10 °C1017.10 hPa87.00 %7.10 °C 
22:45:009.30 °C1017.20 hPa86.00 %7.10 °C 
22:30:009.50 °C1017.20 hPa85.00 %12.96 km/hSO9.50 °C7.10 °C 
22:15:009.90 °C1017.40 hPa85.00 %15.48 km/hSO9.90 °C7.50 °C 
22:00:0010.20 °C1017.20 hPa84.00 %7.60 °C 
21:45:0010.40 °C1017.00 hPa84.00 %7.80 °C 
21:30:0010.70 °C1017.10 hPa82.00 %7.80 °C 
21:15:0011.10 °C1016.90 hPa81.00 %8.00 °C 
21:00:0011.50 °C1017.10 hPa80.00 %8.20 °C 
20:45:0012.10 °C1017.00 hPa79.00 %8.60 °C 
20:30:0012.50 °C1016.90 hPa77.00 %8.60 °C 
20:15:0013.30 °C1016.80 hPa73.00 %8.60 °C 
20:00:0014.30 °C1016.80 hPa71.00 %9.10 °C 
19:45:0015.40 °C1016.40 hPa68.00 %9.50 °C 
19:30:0016.70 °C1016.50 hPa64.00 %9.90 °C 
19:15:0017.60 °C1016.70 hPa61.00 %10.00 °C 
19:00:0018.40 °C1016.80 hPa58.00 %10.00 °C 
18:45:0019.40 °C1016.50 hPa56.00 %10.40 °C 
18:30:0020.10 °C1016.60 hPa53.00 %10.20 °C 
18:15:0021.10 °C1016.80 hPa51.00 %10.60 °C 
18:00:0021.90 °C1016.60 hPa51.00 %25.92 km/hN23.00 °C11.30 °C 
17:45:0022.10 °C1016.60 hPa49.00 %10.90 °C 
17:30:0022.60 °C1016.70 hPa50.00 %11.70 °C 
17:15:0022.80 °C1016.70 hPa50.00 %11.80 °C 
17:00:0022.70 °C1016.80 hPa48.00 %11.10 °C 
16:45:0023.20 °C1016.90 hPa48.00 %11.60 °C 
16:30:0023.90 °C1016.90 hPa48.00 %12.20 °C 
16:15:0024.10 °C1016.80 hPa46.00 %11.80 °C 
16:00:0023.80 °C1016.70 hPa48.00 %12.10 °C 
15:45:0023.60 °C1016.70 hPa47.00 %11.60 °C 
15:30:0024.40 °C1016.80 hPa46.00 %12.00 °C 
15:15:0023.90 °C1016.90 hPa48.00 %12.20 °C 
15:00:0023.50 °C1016.90 hPa50.00 %12.50 °C 
14:45:0023.60 °C1016.90 hPa49.00 %12.30 °C 
14:30:0023.60 °C1017.00 hPa49.00 %12.30 °C 
14:15:0023.60 °C1016.90 hPa48.00 %12.00 °C 
14:00:0023.20 °C1017.00 hPa51.00 %12.50 °C 
13:45:0023.30 °C1017.10 hPa50.00 %12.30 °C 
13:30:0023.60 °C1017.20 hPa50.00 %12.60 °C 
13:15:0022.80 °C1017.10 hPa54.00 %13.00 °C 
13:00:0021.10 °C1017.40 hPa57.00 %12.30 °C 
12:45:0021.20 °C1017.40 hPa55.00 %11.80 °C 
12:30:0022.10 °C1017.60 hPa57.00 %13.20 °C 
12:15:0021.80 °C1017.40 hPa58.00 %13.20 °C 
12:00:0021.10 °C1017.50 hPa59.00 %20.88 km/hSW22.30 °C12.80 °C 
11:45:0020.50 °C1017.50 hPa61.00 %12.70 °C 
11:30:0020.10 °C1017.40 hPa64.00 %13.10 °C 
11:15:0019.20 °C1017.20 hPa66.00 %12.70 °C 
11:00:0018.30 °C1017.30 hPa70.00 %12.70 °C 
10:45:0018.90 °C1017.30 hPa69.00 %13.10 °C 
10:30:0019.40 °C1017.40 hPa71.00 %14.00 °C 
10:15:0018.00 °C1017.40 hPa77.00 %13.90 °C 
10:00:0016.30 °C1017.30 hPa83.00 %13.40 °C 
09:45:0014.60 °C1017.20 hPa87.00 %12.50 °C 
09:30:0013.30 °C1017.30 hPa89.00 %11.50 °C 
09:15:0013.10 °C1017.00 hPa88.00 %11.20 °C 
09:00:0013.20 °C1017.10 hPa89.00 %11.40 °C 
08:45:0012.90 °C1016.90 hPa91.00 %11.50 °C 
08:30:0011.90 °C1016.80 hPa92.00 %10.60 °C 
08:15:0010.90 °C1016.80 hPa93.00 %9.80 °C 
08:00:009.80 °C1016.80 hPa93.00 %8.70 °C 
07:45:008.90 °C1016.70 hPa93.00 %7.80 °C 
07:30:008.30 °C1016.80 hPa93.00 %7.20 °C 
07:15:008.20 °C1016.70 hPa93.00 %7.10 °C 
07:00:008.20 °C1016.70 hPa93.00 %7.10 °C 
06:45:008.20 °C1016.70 hPa93.00 %7.10 °C 
06:30:007.90 °C1016.80 hPa93.00 %6.80 °C 
06:15:007.60 °C1016.80 hPa93.00 %6.50 °C 
06:00:007.50 °C1016.70 hPa92.00 %6.30 °C 
05:45:007.60 °C1016.70 hPa92.00 %6.40 °C 
05:30:007.80 °C1016.60 hPa92.00 %6.60 °C 
05:15:007.90 °C1016.60 hPa91.00 %6.50 °C 
05:00:008.30 °C1016.40 hPa91.00 %6.90 °C 
04:45:008.40 °C1016.60 hPa92.00 %7.20 °C 
04:30:008.40 °C1016.50 hPa92.00 %7.20 °C 
04:15:008.40 °C1016.40 hPa92.00 %7.20 °C 
04:00:008.30 °C1016.20 hPa91.00 %6.90 °C 
03:45:008.30 °C1016.20 hPa91.00 %6.90 °C 
03:30:008.20 °C1016.20 hPa91.00 %11.52 km/hOSO8.20 °C6.80 °C 
03:15:008.30 °C1016.10 hPa91.00 %6.90 °C 
03:00:008.60 °C1016.10 hPa90.00 %7.10 °C 
02:45:008.90 °C1016.20 hPa90.00 %7.40 °C 
02:30:009.20 °C1016.20 hPa90.00 %7.60 °C 
02:15:009.30 °C1016.20 hPa90.00 %7.70 °C 
02:00:009.40 °C1016.10 hPa90.00 %7.80 °C 
01:45:009.50 °C1016.40 hPa90.00 %7.90 °C 
01:30:009.60 °C1016.50 hPa89.00 %7.90 °C 
01:15:009.80 °C1016.40 hPa89.00 %8.10 °C 
01:00:0010.10 °C1016.40 hPa88.00 %8.20 °C 
00:45:0010.40 °C1016.60 hPa88.00 %8.50 °C 
00:30:0010.90 °C1016.50 hPa87.00 %8.80 °C 
00:15:0011.10 °C1016.50 hPa88.00 %9.20 °C 
00:00:0010.90 °C1016.60 hPa87.00 %8.80 °C 

Permanenter Link zu dieser Seite: Wetter im Erzgebirge am 28.08.2017
Performance-Info: Die Erstellung der Seite / Statistik(en) / Tabelle(n) erforderte 5 Datenbankserver-Abfrage(n) und dauerte 100 Millisekunden. (Dieser Messwert ist von der Gesamt-Auslastung des Servers abhängig.)
Erzgebirge - Wetter | Erzgebirge - Wetter (Mobilgeräte) | Komplette Klimadatenbank